Terminal Aerodrome Forecast
Issued by NWS

Home | Current Version | Previous Version | Text Only | Print | Product List | Glossary On
Versions: 1 2 3 4 5 6 7 8 9 10 11 12 13
000
FTUS43 KOAX 161100 RRA
TAFCDR
TAF
KCDR 161141Z 1612/1712 19007KT P6SM SKC
     FM161700 30007KT P6SM SKC
     FM170100 12006KT P6SM SCT200=

USA.gov is the U.S. government's official web portal to all federal, state and local government web resources and services.